Terminal Aerodrome Forecast
Issued by NWS Amarillo, TX

Home | Current Version | Previous Version | Text Only | Print | Product List | Glossary On
Versions: 1 2 3 4 5 6 7 8 9 10 11 12 13 14 15 16 17 18 19 20 21 22 23 24 25
000
FTUS44 KAMA 222300
TAFGUY
TAF
KGUY 222320Z 2300/2324 16012KT P6SM SCT015 OVC030
      TEMPO 2301/2305 BKN015
     FM230500 16012KT P6SM OVC015
      TEMPO 2305/2309 6SM BR OVC005
     FM230900 17011KT 5SM -SHRA VCTS SCT004 OVC015CB
     FM231600 16019G29KT P6SM SCT015 BKN200=

USA.gov is the U.S. government's official web portal to all federal, state and local government web resources and services.